Date,TemperatureHighF,TemperatureAvgF,TemperatureLowF,DewpointHighF,DewpointAvgF,DewpointLowF,HumidityHigh,HumidityAvg,HumidityLow,PressureMaxIn,PressureMinIn,WindSpeedMaxMPH,WindSpeedAvgMPH,GustSpeedMaxMPH,PrecipitationSumIn
2013-2-1,53,42,29,33,23,10,66,47,26,30.36,30.00,19,8,33,0.04
2013-2-2,45,36,27,41,23,9,93,61,31,30.40,30.02,9,3,14,0.00
2013-2-3,54,42,32,41,34,30,96,75,42,30.02,29.83,13,4,22,0.00
2013-2-4,49,38,25,37,30,23,93,73,42,30.13,29.96,7,1,12,0.00
2013-2-5,62,50,38,48,41,36,93,75,40,30.04,29.87,9,3,20,0.00
2013-2-6,65,50,40,50,43,37,95,79,36,30.22,29.95,9,3,13,0.00
2013-2-7,62,51,44,53,48,42,96,90,71,30.25,29.80,13,5,22,1.11
2013-2-8,56,52,47,55,48,39,97,88,74,29.97,29.48,21,8,31,0.40
2013-2-9,54,43,30,38,30,25,91,63,34,30.34,29.98,13,6,22,0.00
2013-2-10,54,42,27,50,37,25,95,83,49,30.45,30.25,8,3,14,0.00
2013-2-11,66,59,51,62,57,49,96,93,89,30.28,29.93,12,5,26,0.12
2013-2-12,64,58,52,60,51,40,94,81,41,30.06,29.92,10,4,17,0.07
2013-2-13,58,52,48,56,50,47,100,95,87,29.97,29.60,14,4,29,0.36
2013-2-14,53,46,37,49,41,36,95,83,62,30.07,29.78,9,2,17,0.01
2013-2-15,58,44,33,44,37,32,97,80,44,30.07,29.94,10,2,16,0.00
2013-2-16,48,39,33,44,37,32,96,91,80,29.94,29.68,16,5,27,0.17
2013-2-17,39,33,27,33,24,14,95,72,37,30.26,29.84,19,8,33,0.05
2013-2-18,48,35,20,31,23,14,92,65,34,30.42,30.26,9,2,16,0.00
2013-2-19,59,47,31,56,44,28,96,89,76,30.28,29.89,14,4,30,0.11
2013-2-20,58,45,34,45,33,14,96,70,18,30.09,29.93,13,3,22,0.00
2013-2-21,58,42,31,38,31,23,94,67,29,30.23,30.06,9,3,14,0.00
2013-2-22,52,45,40,50,38,28,94,77,62,30.30,30.03,9,4,18,0.00
2013-2-23,53,48,45,52,47,44,97,97,94,30.03,29.80,8,3,14,0.58
2013-2-24,64,51,40,51,47,38,97,88,52,29.97,29.74,12,4,18,0.00
2013-2-25,46,42,36,42,35,32,96,77,63,30.16,29.97,10,5,22,0.00
2013-2-26,64,55,41,63,53,34,97,93,74,30.06,29.59,19,8,31,0.96
2013-2-27,61,53,47,58,47,42,95,80,57,29.79,29.59,14,6,27,0.00
2013-2-28,58,47,36,45,40,33,92,76,47,29.82,29.67,12,5,21,0.00